createdAt,value
2017-10-20T00:01:01.462Z,4.90
2017-10-20T00:03:28.991Z,5.10
2017-10-20T00:05:56.494Z,5.60
2017-10-20T00:08:24.794Z,4.90
2017-10-20T00:10:52.329Z,5.80
2017-10-20T00:13:19.839Z,5.13
2017-10-20T00:15:47.328Z,4.90
2017-10-20T00:18:14.854Z,5.10
2017-10-20T00:20:42.358Z,5.30
2017-10-20T00:23:10.657Z,6.07
2017-10-20T00:25:38.162Z,5.07
2017-10-20T00:28:05.679Z,5.47
2017-10-20T00:30:33.177Z,5.10
2017-10-20T00:33:00.696Z,5.43
2017-10-20T00:35:28.190Z,4.83
2017-10-20T00:37:55.690Z,4.73
2017-10-20T00:40:25.141Z,5.10
2017-10-20T00:42:52.646Z,4.87
2017-10-20T00:45:20.174Z,5.07
2017-10-20T00:47:47.679Z,4.97
2017-10-20T00:50:15.202Z,4.77
2017-10-20T00:52:43.466Z,5.63
2017-10-20T00:55:10.981Z,4.50
2017-10-20T00:57:39.441Z,4.50
2017-10-20T01:00:06.971Z,4.93
2017-10-20T01:02:35.229Z,4.40
2017-10-20T01:05:02.740Z,4.80
2017-10-20T01:07:30.257Z,5.87
2017-10-20T01:09:59.461Z,5.70
2017-10-20T01:12:27.752Z,5.50
2017-10-20T01:14:55.266Z,5.10
2017-10-20T01:17:22.786Z,4.83
2017-10-20T01:19:50.295Z,5.70
2017-10-20T01:22:18.593Z,5.37
2017-10-20T01:24:46.853Z,5.50
2017-10-20T01:27:15.124Z,5.67
2017-10-20T01:29:43.417Z,4.90
2017-10-20T01:32:10.922Z,4.70
2017-10-20T01:34:38.459Z,4.90
2017-10-20T01:37:06.918Z,6.20
2017-10-20T01:39:34.446Z,4.70
2017-10-20T01:42:02.710Z,5.10
2017-10-20T01:44:32.186Z,5.20
2017-10-20T01:46:59.691Z,5.03
2017-10-20T01:49:27.954Z,4.87
2017-10-20T01:51:56.246Z,5.40
2017-10-20T01:54:24.514Z,5.10
2017-10-20T01:56:52.801Z,5.30
2017-10-20T01:59:21.061Z,4.70
2017-10-20T02:01:48.578Z,5.40
2017-10-20T02:04:16.078Z,5.70
2017-10-20T02:06:44.353Z,5.47
2017-10-20T02:09:12.617Z,5.40
2017-10-20T02:11:40.906Z,5.10
2017-10-20T02:14:09.157Z,5.17
2017-10-20T02:16:36.678Z,4.60
2017-10-20T02:19:04.169Z,6.07
2017-10-20T02:21:31.686Z,5.37
2017-10-20T02:23:59.181Z,5.50
2017-10-20T02:26:28.641Z,5.20
2017-10-20T02:28:56.133Z,5.40
2017-10-20T02:31:25.606Z,4.93
2017-10-20T02:33:53.103Z,5.47
2017-10-20T02:36:20.627Z,5.10
2017-10-20T02:38:48.122Z,5.23
2017-10-20T02:41:15.646Z,4.90
2017-10-20T02:43:43.149Z,5.30
2017-10-20T02:46:11.441Z,5.70
2017-10-20T02:48:38.933Z,5.33
2017-10-20T02:51:06.456Z,4.40
2017-10-20T02:53:33.950Z,5.60
2017-10-20T02:56:01.478Z,5.30
2017-10-20T02:58:28.983Z,5.87
2017-10-20T03:00:56.514Z,5.10
2017-10-20T03:03:24.010Z,4.70
2017-10-20T03:05:52.305Z,5.20
2017-10-20T03:08:20.569Z,5.23
2017-10-20T03:10:48.853Z,4.80
2017-10-20T03:13:17.113Z,5.57
2017-10-20T03:15:46.573Z,5.37
2017-10-20T03:18:14.070Z,5.43
2017-10-20T03:20:41.585Z,5.37
2017-10-20T03:23:10.042Z,4.70
2017-10-20T03:25:37.557Z,5.70
2017-10-20T03:28:05.058Z,4.80
2017-10-20T03:30:32.595Z,5.33
2017-10-20T03:33:00.867Z,5.57
2017-10-20T03:35:30.854Z,5.03
2017-10-20T03:37:58.354Z,4.57
2017-10-20T03:40:25.846Z,5.50
2017-10-20T03:42:53.373Z,4.83
2017-10-20T03:45:20.885Z,4.43
2017-10-20T03:47:48.404Z,5.60
2017-10-20T03:50:15.898Z,5.60
2017-10-20T03:52:43.389Z,4.93
2017-10-20T03:55:11.672Z,4.83
2017-10-20T03:57:39.161Z,5.17
2017-10-20T04:00:06.679Z,5.37
2017-10-20T04:02:34.941Z,5.77
2017-10-20T04:05:03.204Z,5.07
2017-10-20T04:07:30.722Z,5.00
2017-10-20T04:09:58.214Z,4.90
2017-10-20T04:12:25.733Z,5.50
2017-10-20T04:14:54.165Z,4.60
2017-10-20T04:17:21.654Z,4.77
2017-10-20T04:19:49.173Z,4.90
2017-10-20T04:22:16.666Z,5.40
2017-10-20T04:24:44.185Z,4.50
2017-10-20T04:27:12.563Z,5.00
2017-10-20T04:29:40.857Z,5.00
2017-10-20T04:32:08.358Z,5.17
2017-10-20T04:34:35.878Z,4.50
2017-10-20T04:37:03.389Z,4.73
2017-10-20T04:39:30.893Z,5.23
2017-10-20T04:41:58.408Z,4.80
2017-10-20T04:44:25.920Z,4.90
2017-10-20T04:46:53.426Z,4.77
2017-10-20T04:49:20.952Z,5.50
2017-10-20T04:51:49.394Z,5.30
2017-10-20T04:54:17.678Z,4.93
2017-10-20T04:56:45.186Z,5.50
2017-10-20T04:59:12.687Z,4.80
2017-10-20T05:01:41.022Z,4.77
2017-10-20T05:04:08.522Z,5.60
2017-10-20T05:06:36.043Z,5.30
2017-10-20T05:09:03.546Z,6.00
2017-10-20T05:11:32.073Z,4.60
2017-10-20T05:13:59.592Z,5.20
2017-10-20T05:16:28.918Z,4.97
2017-10-20T05:18:56.657Z,5.33
2017-10-20T05:21:25.650Z,4.63
2017-10-20T05:23:53.412Z,5.47
2017-10-20T05:26:21.482Z,4.73
2017-10-20T05:28:49.449Z,4.70
2017-10-20T05:31:17.364Z,4.97
2017-10-20T05:33:45.386Z,5.10
2017-10-20T05:36:13.354Z,4.87
2017-10-20T05:38:41.423Z,4.43
2017-10-20T05:41:09.457Z,4.97
2017-10-20T05:43:37.566Z,5.60
2017-10-20T05:46:05.633Z,5.20
2017-10-20T05:48:34.727Z,5.20
2017-10-20T05:51:03.514Z,4.47
2017-10-20T05:53:31.482Z,5.17
2017-10-20T05:55:59.656Z,5.03
2017-10-20T05:58:27.624Z,5.23
2017-10-20T06:00:56.306Z,4.80
2017-10-20T06:03:24.377Z,4.40
2017-10-20T06:05:52.652Z,5.30
2017-10-20T06:08:20.621Z,5.10
2017-10-20T06:10:49.611Z,4.87
2017-10-20T06:13:17.579Z,5.40
2017-10-20T06:15:45.651Z,5.40
2017-10-20T06:18:13.821Z,5.37
2017-10-20T06:20:41.892Z,5.27
2017-10-20T06:23:09.963Z,15.90
2017-10-20T06:25:39.112Z,42.93
2017-10-20T06:28:08.310Z,39.20
2017-10-20T06:30:36.118Z,33.73
2017-10-20T06:33:05.110Z,41.83
2017-10-20T06:35:34.101Z,39.73
2017-10-20T06:38:02.273Z,42.67
2017-10-20T06:40:31.779Z,32.00
2017-10-20T06:42:59.847Z,35.40
2017-10-20T06:45:27.815Z,31.23
2017-10-20T06:47:55.783Z,29.73
2017-10-20T06:50:23.956Z,30.23
2017-10-20T06:52:52.853Z,29.90
2017-10-20T06:55:22.554Z,29.83
2017-10-20T06:57:50.521Z,29.40
2017-10-20T07:00:18.489Z,29.03
2017-10-20T07:02:46.517Z,27.97
2017-10-20T07:05:14.527Z,25.40
2017-10-20T07:07:42.700Z,26.20
2017-10-20T07:10:10.773Z,25.47
2017-10-20T07:12:38.838Z,25.13
2017-10-20T07:15:06.808Z,24.40
2017-10-20T07:17:34.627Z,22.30
2017-10-20T07:20:05.999Z,21.83
2017-10-20T07:22:35.010Z,21.27
2017-10-20T07:25:02.876Z,20.97
2017-10-20T07:27:30.406Z,18.53
2017-10-20T07:29:59.662Z,20.43
2017-10-20T07:32:27.174Z,20.10
2017-10-20T07:34:54.698Z,19.40
2017-10-20T07:37:22.965Z,18.40
2017-10-20T07:39:50.490Z,20.70
2017-10-20T07:42:17.997Z,16.57
2017-10-20T07:44:46.273Z,16.60
2017-10-20T07:47:15.054Z,17.37
2017-10-20T07:49:43.331Z,17.10
2017-10-20T07:52:13.569Z,15.63
2017-10-20T07:54:41.109Z,17.07
2017-10-20T07:57:09.374Z,14.17
2017-10-20T07:59:37.666Z,15.10
2017-10-20T08:02:05.933Z,13.80
2017-10-20T08:04:34.233Z,12.87
2017-10-20T08:07:01.741Z,13.90
2017-10-20T08:09:29.271Z,13.33
2017-10-20T08:11:56.774Z,13.00
2017-10-20T08:14:25.079Z,12.50
2017-10-20T08:16:53.541Z,13.57
2017-10-20T08:19:21.821Z,13.00
2017-10-20T08:21:50.089Z,14.33
2017-10-20T08:24:18.381Z,12.30
2017-10-20T08:26:45.885Z,12.17
2017-10-20T08:29:13.413Z,11.27
2017-10-20T08:31:41.873Z,11.67
2017-10-20T08:34:09.413Z,11.13
2017-10-20T08:36:36.933Z,11.40
2017-10-20T08:39:04.465Z,11.40
2017-10-20T08:41:31.973Z,11.47
2017-10-20T08:44:00.470Z,11.30
2017-10-20T08:46:28.737Z,10.73
2017-10-20T08:48:57.033Z,10.43
2017-10-20T08:51:24.539Z,10.77
2017-10-20T08:53:54.001Z,10.73
2017-10-20T08:56:21.517Z,9.90
2017-10-20T08:58:49.810Z,10.03
2017-10-20T09:01:18.070Z,9.47
2017-10-20T09:03:46.357Z,8.60
2017-10-20T09:06:14.630Z,11.00
2017-10-20T09:08:42.921Z,8.97
2017-10-20T09:11:10.418Z,9.60
2017-10-20T09:13:39.904Z,9.30
2017-10-20T09:16:07.405Z,9.73
2017-10-20T09:18:34.926Z,8.40
2017-10-20T09:21:02.426Z,9.03
2017-10-20T09:23:29.946Z,8.93
2017-10-20T09:25:58.355Z,8.77
2017-10-20T09:28:25.873Z,9.70
2017-10-20T09:30:53.370Z,8.40
2017-10-20T09:33:20.889Z,8.43
2017-10-20T09:35:48.398Z,8.07
2017-10-20T09:38:16.686Z,8.50
2017-10-20T09:40:44.950Z,7.90
2017-10-20T09:43:13.238Z,8.17
2017-10-20T09:45:40.754Z,7.50
2017-10-20T09:48:08.273Z,8.00
2017-10-20T09:50:35.767Z,8.00
2017-10-20T09:53:03.293Z,8.07
2017-10-20T09:55:30.805Z,7.83
2017-10-20T09:57:59.099Z,7.27
2017-10-20T10:00:26.602Z,8.60
2017-10-20T10:02:54.143Z,7.53
2017-10-20T10:05:22.602Z,6.57
2017-10-20T10:07:50.129Z,7.50
2017-10-20T10:10:18.385Z,6.50
2017-10-20T10:12:45.907Z,7.73
2017-10-20T10:15:13.418Z,6.77
2017-10-20T10:17:41.717Z,7.40
2017-10-20T10:20:09.213Z,6.60
2017-10-20T10:22:36.743Z,6.77
2017-10-20T10:25:04.250Z,6.47
2017-10-20T10:27:32.558Z,6.10
2017-10-20T10:30:00.821Z,6.30
2017-10-20T10:32:29.110Z,6.40
2017-10-20T10:34:57.373Z,7.00
2017-10-20T10:37:25.664Z,6.97
2017-10-20T10:39:54.130Z,6.50
2017-10-20T10:42:22.430Z,7.80
2017-10-20T10:44:49.929Z,7.00
2017-10-20T10:47:17.446Z,6.70
2017-10-20T10:49:44.946Z,6.30
2017-10-20T10:52:12.471Z,7.83
2017-10-20T10:54:40.944Z,6.60
2017-10-20T10:57:08.471Z,5.87
2017-10-20T10:59:36.730Z,6.17
2017-10-20T11:02:05.022Z,6.80
2017-10-20T11:04:33.291Z,5.20
2017-10-20T11:07:13.522Z,5.50
2017-10-20T11:09:52.861Z,7.20
2017-10-20T11:12:32.388Z,5.77
2017-10-20T11:14:59.891Z,5.70
2017-10-20T11:17:27.408Z,5.80
2017-10-20T11:19:55.870Z,6.30
2017-10-20T11:22:23.390Z,6.37
2017-10-20T11:24:50.885Z,5.20
2017-10-20T11:27:20.370Z,6.60
2017-10-20T11:29:47.874Z,5.87
2017-10-20T11:32:16.161Z,6.23
2017-10-20T11:34:45.378Z,5.90
2017-10-20T11:37:12.895Z,5.97
2017-10-20T11:39:40.406Z,6.40
2017-10-20T11:42:07.930Z,5.80
2017-10-20T11:44:36.217Z,5.20
2017-10-20T11:47:03.737Z,5.10
2017-10-20T11:49:31.235Z,5.63
2017-10-20T11:51:58.757Z,5.70
2017-10-20T11:54:26.257Z,5.50
2017-10-20T11:56:53.781Z,5.97
2017-10-20T11:59:21.286Z,5.77
2017-10-20T12:01:48.805Z,5.20
2017-10-20T12:04:17.079Z,6.50
2017-10-20T12:06:45.366Z,5.20
2017-10-20T12:09:12.879Z,5.43
2017-10-20T12:11:40.397Z,5.37
2017-10-20T12:14:07.898Z,5.97
2017-10-20T12:16:35.421Z,5.73
2017-10-20T12:19:02.914Z,5.07
2017-10-20T12:21:30.430Z,5.63
2017-10-20T12:23:57.935Z,4.70
2017-10-20T12:26:25.453Z,5.70
2017-10-20T12:28:52.961Z,5.20
2017-10-20T12:31:21.247Z,5.03
2017-10-20T12:33:51.478Z,5.00
2017-10-20T12:36:18.971Z,5.20
2017-10-20T12:38:46.493Z,4.53
2017-10-20T12:41:13.993Z,4.73
2017-10-20T12:43:41.513Z,5.10
2017-10-20T12:46:09.013Z,4.70
2017-10-20T12:48:37.514Z,4.77
2017-10-20T12:51:05.006Z,5.33
2017-10-20T12:53:32.527Z,5.07
2017-10-20T12:56:00.030Z,5.00
2017-10-20T12:58:27.556Z,4.80
2017-10-20T13:00:55.826Z,4.97
2017-10-20T13:03:24.100Z,4.70
2017-10-20T13:05:52.363Z,4.00
2017-10-20T13:08:19.885Z,5.10
2017-10-20T13:10:47.381Z,4.87
2017-10-20T13:13:15.669Z,4.53
2017-10-20T13:15:43.925Z,5.40
2017-10-20T13:18:11.445Z,4.60
2017-10-20T13:20:38.946Z,4.70
2017-10-20T13:23:07.221Z,5.17
2017-10-20T13:25:35.485Z,5.03
2017-10-20T13:28:03.002Z,4.87
2017-10-20T13:30:30.507Z,4.90
2017-10-20T13:32:58.037Z,4.30
2017-10-20T13:35:25.541Z,4.83
2017-10-20T13:37:55.773Z,4.57
2017-10-20T13:40:23.261Z,5.23
2017-10-20T13:42:50.785Z,4.20
2017-10-20T13:45:18.274Z,5.23
2017-10-20T13:47:45.793Z,4.77
2017-10-20T13:50:14.058Z,5.17
2017-10-20T13:52:42.386Z,4.63
2017-10-20T13:55:09.889Z,4.60
2017-10-20T13:57:38.170Z,5.30
2017-10-20T14:00:06.442Z,4.80
2017-10-20T14:02:34.733Z,5.30
2017-10-20T14:05:03.246Z,4.53
2017-10-20T14:07:30.788Z,4.80
2017-10-20T14:09:58.286Z,4.50
2017-10-20T14:12:25.805Z,5.07
2017-10-20T14:14:54.254Z,4.90
2017-10-20T14:17:22.538Z,3.90
2017-10-20T14:19:50.034Z,4.87
2017-10-20T14:22:17.553Z,4.60
2017-10-20T14:24:46.048Z,5.03
2017-10-20T14:27:13.562Z,4.77
2017-10-20T14:29:41.821Z,5.13
2017-10-20T14:32:09.342Z,4.37
2017-10-20T14:34:36.838Z,4.27
2017-10-20T14:37:04.366Z,4.63
2017-10-20T14:39:32.815Z,4.57
2017-10-20T14:42:00.338Z,4.70
2017-10-20T14:44:27.854Z,4.30
2017-10-20T14:46:55.389Z,4.53
2017-10-20T14:49:22.894Z,4.30
2017-10-20T14:51:50.433Z,5.17
2017-10-20T14:54:17.928Z,4.53
2017-10-20T14:56:46.238Z,4.63
2017-10-20T14:59:13.738Z,5.50
2017-10-20T15:01:41.258Z,5.27
2017-10-20T15:04:08.751Z,4.23
2017-10-20T15:06:36.280Z,4.80
2017-10-20T15:09:03.794Z,5.03
2017-10-20T15:11:32.071Z,4.43
2017-10-20T15:14:00.365Z,4.80
2017-10-20T15:16:28.643Z,5.50
2017-10-20T15:18:56.129Z,4.70
2017-10-20T15:21:23.638Z,5.17
2017-10-20T15:23:51.905Z,4.70
2017-10-20T15:26:19.426Z,5.23
2017-10-20T15:28:46.919Z,5.13
2017-10-20T15:31:14.441Z,4.53
2017-10-20T15:33:41.945Z,4.90
2017-10-20T15:36:10.242Z,5.20
2017-10-20T15:41:12.403Z,5.37
2017-10-20T15:43:40.671Z,4.97
2017-10-20T15:46:10.914Z,5.20
2017-10-20T15:48:38.409Z,4.50
2017-10-20T15:51:05.927Z,5.20
2017-10-20T15:53:33.430Z,4.67
2017-10-20T15:56:00.945Z,4.33
2017-10-20T15:58:28.446Z,4.20
2017-10-20T16:00:55.962Z,5.33
2017-10-20T16:03:23.462Z,4.80
2017-10-20T16:05:50.977Z,5.03
2017-10-20T16:08:18.487Z,5.13
2017-10-20T16:10:46.011Z,4.80
2017-10-20T16:13:13.958Z,5.20
2017-10-20T16:15:41.485Z,4.77
2017-10-20T16:18:09.747Z,4.50
2017-10-20T16:20:37.269Z,4.90
2017-10-20T16:23:04.787Z,4.10
2017-10-20T16:25:33.074Z,4.00
2017-10-20T16:28:00.600Z,4.80
2017-10-20T16:30:28.880Z,4.77
2017-10-20T16:32:57.140Z,5.10
2017-10-20T16:35:24.665Z,4.47
2017-10-20T16:37:52.161Z,4.70
2017-10-20T16:40:19.678Z,4.50
2017-10-20T16:42:47.169Z,4.27
2017-10-20T16:45:14.686Z,4.63
2017-10-20T16:47:42.179Z,4.33
2017-10-20T16:50:11.637Z,5.40
2017-10-20T16:52:39.134Z,4.90
2017-10-20T16:55:06.629Z,4.27
2017-10-20T16:57:34.149Z,4.50
2017-10-20T17:00:01.648Z,5.17
2017-10-20T17:02:29.167Z,5.00
2017-10-20T17:04:56.726Z,4.63
2017-10-20T17:07:26.183Z,3.93
2017-10-20T17:09:53.677Z,4.43
2017-10-20T17:12:21.194Z,4.80
2017-10-20T17:14:49.638Z,4.70
2017-10-20T17:17:17.918Z,5.37
2017-10-20T17:19:46.186Z,4.57
2017-10-20T17:22:13.721Z,4.10
2017-10-20T17:24:41.217Z,4.97
2017-10-20T17:27:11.454Z,4.30
2017-10-20T17:29:38.945Z,4.40
2017-10-20T17:32:06.462Z,4.77
2017-10-20T17:34:33.957Z,4.80
2017-10-20T17:37:01.477Z,3.70
2017-10-20T17:39:28.977Z,4.00
2017-10-20T17:41:56.494Z,4.87
2017-10-20T17:44:23.998Z,4.13
2017-10-20T17:46:51.526Z,4.30
2017-10-20T17:49:19.017Z,3.70
2017-10-20T17:51:46.541Z,4.10
2017-10-20T17:54:14.038Z,4.33
2017-10-20T17:56:41.555Z,3.93
2017-10-20T17:59:09.045Z,4.43
2017-10-20T18:01:36.559Z,4.10
2017-10-20T18:04:04.065Z,4.27
2017-10-20T18:06:31.587Z,4.53
2017-10-20T18:08:59.091Z,4.37
2017-10-20T18:11:27.373Z,4.50
2017-10-20T18:13:55.634Z,4.33
2017-10-20T18:16:24.894Z,4.50
2017-10-20T18:18:52.393Z,3.70
2017-10-20T18:21:20.674Z,4.63
2017-10-20T18:23:48.933Z,4.17
2017-10-20T18:26:16.456Z,3.80
2017-10-20T18:28:43.957Z,3.90
2017-10-20T18:31:12.262Z,4.10
2017-10-20T18:33:39.786Z,4.10
2017-10-20T18:36:08.078Z,3.87
2017-10-20T18:38:36.337Z,4.10
2017-10-20T18:41:04.619Z,4.47
2017-10-20T18:43:32.894Z,4.00
2017-10-20T18:46:01.181Z,3.20
2017-10-20T18:48:28.681Z,4.67
2017-10-20T18:50:56.203Z,4.70
2017-10-20T18:53:23.710Z,3.67
2017-10-20T18:55:51.247Z,4.27
2017-10-20T18:58:18.739Z,4.00
2017-10-20T19:00:47.035Z,4.07
2017-10-20T19:03:15.289Z,4.50
2017-10-20T19:05:42.814Z,4.13
2017-10-20T19:08:10.320Z,4.10
2017-10-20T19:10:38.602Z,4.17
2017-10-20T19:13:06.870Z,4.03
2017-10-20T19:15:35.158Z,3.90
2017-10-20T19:18:03.410Z,4.07
2017-10-20T19:20:31.694Z,3.50
2017-10-20T19:22:59.980Z,4.07
2017-10-20T19:25:27.502Z,3.73
2017-10-20T19:27:55.003Z,4.17
2017-10-20T19:30:22.519Z,3.50
2017-10-20T19:32:50.017Z,4.10
2017-10-20T19:35:17.559Z,3.90
2017-10-20T19:37:45.820Z,3.77
2017-10-20T19:40:13.333Z,4.20
2017-10-20T19:42:40.849Z,4.00
2017-10-20T19:45:09.126Z,3.87
2017-10-20T19:47:37.389Z,4.00
2017-10-20T19:50:05.673Z,4.13
2017-10-20T19:52:33.951Z,3.60
2017-10-20T19:55:02.254Z,4.20
2017-10-20T19:57:29.753Z,4.17
2017-10-20T19:59:57.281Z,4.67
2017-10-20T20:02:24.771Z,3.67
2017-10-20T20:04:52.582Z,3.60
2017-10-20T20:07:20.457Z,4.00
2017-10-20T20:09:48.527Z,4.13
2017-10-20T20:12:16.601Z,3.70
2017-10-20T20:14:44.462Z,4.03
2017-10-20T20:17:12.327Z,3.97
2017-10-20T20:19:39.930Z,3.80
2017-10-20T20:22:09.491Z,3.90
2017-10-20T20:24:37.317Z,4.07
2017-10-20T20:27:05.939Z,3.77
2017-10-20T20:29:34.839Z,3.90
2017-10-20T20:32:08.018Z,4.53
2017-10-20T20:34:35.906Z,4.00
2017-10-20T20:37:04.243Z,4.13
2017-10-20T20:39:32.802Z,4.73
2017-10-20T20:42:01.134Z,3.57
2017-10-20T20:44:28.648Z,3.63
2017-10-20T20:46:56.930Z,3.90
2017-10-20T20:49:25.437Z,3.53
2017-10-20T20:51:52.942Z,3.60
2017-10-20T20:54:21.201Z,3.60
2017-10-20T20:56:50.665Z,3.73
2017-10-20T20:59:18.157Z,3.33
2017-10-20T21:01:45.678Z,3.80
2017-10-20T21:04:13.173Z,3.73
2017-10-20T21:06:40.674Z,4.00
2017-10-20T21:09:08.208Z,3.70
2017-10-20T21:11:36.499Z,3.50
2017-10-20T21:14:04.010Z,3.50
2017-10-20T21:16:33.485Z,3.50
2017-10-20T21:19:00.993Z,3.80
2017-10-20T21:21:29.286Z,3.30
2017-10-20T21:23:57.766Z,3.20
2017-10-20T21:26:26.426Z,3.40
2017-10-20T21:28:53.918Z,3.03
2017-10-20T21:31:21.470Z,4.00
2017-10-20T21:33:49.157Z,3.80
2017-10-20T21:36:16.705Z,2.97
2017-10-20T21:38:46.235Z,3.57
2017-10-20T21:41:14.481Z,3.13
2017-10-20T21:43:42.358Z,3.63
2017-10-20T21:46:10.327Z,3.43
2017-10-20T21:48:39.114Z,3.07
2017-10-20T21:51:06.685Z,3.37
2017-10-20T21:53:34.210Z,3.40
2017-10-20T21:56:01.754Z,3.40
2017-10-20T21:58:30.030Z,3.57
2017-10-20T22:00:58.325Z,3.30
2017-10-20T22:03:25.872Z,3.50
2017-10-20T22:05:55.414Z,3.57
2017-10-20T22:08:22.934Z,3.43
2017-10-20T22:10:50.423Z,3.20
2017-10-20T22:13:17.942Z,3.27
2017-10-20T22:15:47.109Z,3.30
2017-10-20T22:18:15.381Z,3.37
2017-10-20T22:20:42.897Z,3.33
2017-10-20T22:23:10.411Z,3.67
2017-10-20T22:25:38.703Z,3.43
2017-10-20T22:28:07.918Z,3.40
2017-10-20T22:30:35.439Z,3.10
2017-10-20T22:33:03.722Z,3.30
2017-10-20T22:35:32.017Z,3.00
2017-10-20T22:37:59.510Z,3.13
2017-10-20T22:40:27.021Z,2.80
2017-10-20T22:42:55.286Z,3.23
2017-10-20T22:45:23.565Z,2.70
2017-10-20T22:47:51.817Z,3.00
2017-10-20T22:50:19.329Z,3.60
2017-10-20T22:52:46.987Z,3.47
2017-10-20T22:55:14.753Z,3.33
2017-10-20T22:57:42.742Z,3.20
2017-10-20T23:00:11.406Z,3.37
2017-10-20T23:02:39.171Z,2.80
2017-10-20T23:05:06.866Z,3.17
2017-10-20T23:07:34.592Z,3.13
2017-10-20T23:10:02.561Z,3.80
2017-10-20T23:12:31.449Z,3.13
2017-10-20T23:15:00.339Z,2.77
2017-10-20T23:17:27.989Z,3.73
2017-10-20T23:19:55.967Z,3.30
2017-10-20T23:22:23.935Z,3.47
2017-10-20T23:24:51.903Z,3.00
2017-10-20T23:27:20.587Z,2.43
2017-10-20T23:29:48.452Z,2.87
2017-10-20T23:32:17.332Z,3.13
2017-10-20T23:34:45.105Z,3.10
2017-10-20T23:37:12.774Z,3.27
2017-10-20T23:39:40.630Z,3.53
2017-10-20T23:42:08.392Z,3.53
2017-10-20T23:44:36.261Z,3.17
2017-10-20T23:47:06.317Z,3.10
2017-10-20T23:49:34.959Z,2.90
2017-10-20T23:52:02.926Z,2.87
2017-10-20T23:54:31.098Z,3.07
2017-10-20T23:57:00.706Z,3.20
2017-10-20T23:59:28.453Z,2.70
